createdAt,value
2023-02-08T00:01:10.580Z,102977.16
2023-02-08T00:03:40.779Z,102973.00
2023-02-08T00:06:09.557Z,102966.22
2023-02-08T00:08:38.065Z,102968.47
2023-02-08T00:11:07.233Z,102971.28
2023-02-08T00:13:34.820Z,102971.50
2023-02-08T00:16:02.260Z,102971.88
2023-02-08T00:18:29.875Z,102976.19
2023-02-08T00:20:57.374Z,102981.94
2023-02-08T00:23:25.836Z,102984.41
2023-02-08T00:25:53.356Z,102989.31
2023-02-08T00:28:20.728Z,102983.94
2023-02-08T00:30:49.007Z,102987.22
2023-02-08T00:33:35.246Z,102984.84
2023-02-08T00:36:05.983Z,102992.97
2023-02-08T00:38:33.422Z,102996.84
2023-02-08T00:41:01.101Z,102999.34
2023-02-08T00:43:29.749Z,103000.94
2023-02-08T00:45:58.683Z,103005.19
2023-02-08T00:48:27.403Z,103015.06
2023-02-08T00:50:59.134Z,103024.78
2023-02-08T00:53:26.307Z,103021.25
2023-02-08T00:55:55.260Z,103012.91
2023-02-08T00:58:23.129Z,103005.72
2023-02-08T01:00:53.037Z,103007.63
2023-02-08T01:03:22.080Z,103013.94
2023-02-08T01:05:49.487Z,103019.53
2023-02-08T01:08:16.899Z,103018.91
2023-02-08T01:10:47.398Z,103028.59
2023-02-08T01:13:14.782Z,103021.16
2023-02-08T01:15:42.514Z,103020.91
2023-02-08T01:18:10.206Z,103028.03
2023-02-08T01:20:38.185Z,103034.72
2023-02-08T01:23:05.763Z,103033.22
2023-02-08T01:25:33.594Z,103028.09
2023-02-08T01:28:01.089Z,103022.88
2023-02-08T01:30:28.575Z,103027.78
2023-02-08T01:32:55.873Z,103027.63
2023-02-08T01:35:23.229Z,103030.75
2023-02-08T01:37:50.764Z,103032.06
2023-02-08T01:40:18.257Z,103025.91
2023-02-08T01:42:45.581Z,103030.63
2023-02-08T01:45:23.013Z,103030.69
2023-02-08T01:48:05.019Z,103032.53
2023-02-08T01:50:40.901Z,103022.94
2023-02-08T01:53:08.506Z,103024.84
2023-02-08T01:55:46.057Z,103028.53
2023-02-08T01:58:15.447Z,103021.16
2023-02-08T02:00:43.079Z,103021.34
2023-02-08T02:03:14.534Z,103021.19
2023-02-08T02:05:48.159Z,103015.00
2023-02-08T02:08:16.133Z,103021.59
2023-02-08T02:10:44.314Z,103018.09
2023-02-08T02:13:16.840Z,103022.66
2023-02-08T02:15:46.024Z,103015.81
2023-02-08T02:18:26.776Z,103022.38
2023-02-08T02:21:21.943Z,103026.53
2023-02-08T02:24:12.308Z,103017.91
2023-02-08T02:26:48.793Z,103016.03
2023-02-08T02:29:28.196Z,103018.13
2023-02-08T02:32:00.691Z,103022.22
2023-02-08T02:34:40.795Z,103015.84
2023-02-08T02:37:30.089Z,103009.84
2023-02-08T02:40:16.503Z,103008.78
2023-02-08T02:43:08.630Z,103017.09
2023-02-08T02:45:35.832Z,103002.03
2023-02-08T02:48:10.324Z,103003.66
2023-02-08T02:50:44.740Z,103001.38
2023-02-08T02:53:20.502Z,103008.81
2023-02-08T02:55:53.940Z,102999.53
2023-02-08T02:58:23.059Z,103000.56
2023-02-08T03:00:55.223Z,103000.34
2023-02-08T03:03:26.647Z,103002.22
2023-02-08T03:06:01.979Z,103003.84
2023-02-08T03:08:51.866Z,103011.69
2023-02-08T03:11:27.442Z,103012.75
2023-02-08T03:14:19.766Z,103009.19
2023-02-08T03:17:11.323Z,103012.03
2023-02-08T03:20:04.395Z,103023.81
2023-02-08T03:22:31.686Z,103020.97
2023-02-08T03:25:06.434Z,103032.28
2023-02-08T03:27:36.265Z,103029.34
2023-02-08T03:30:11.052Z,103029.75
2023-02-08T03:32:50.532Z,103026.63
2023-02-08T03:35:32.096Z,103029.75
2023-02-08T03:38:06.046Z,103031.81
2023-02-08T03:40:44.422Z,103026.50
2023-02-08T03:43:27.472Z,103026.81
2023-02-08T03:46:24.392Z,103026.56
2023-02-08T03:48:58.557Z,103032.50
2023-02-08T03:51:29.914Z,103030.03
2023-02-08T03:54:00.421Z,103036.03
2023-02-08T03:56:38.793Z,103028.44
2023-02-08T03:59:11.397Z,103033.50
2023-02-08T04:01:44.966Z,103020.28
2023-02-08T04:04:15.830Z,103010.19
2023-02-08T04:06:43.368Z,103020.75
2023-02-08T04:09:10.880Z,103007.50
2023-02-08T04:11:38.181Z,103009.63
2023-02-08T04:14:05.579Z,103018.66
2023-02-08T04:16:32.924Z,103015.56
2023-02-08T04:19:00.295Z,103021.88
2023-02-08T04:21:27.658Z,103026.81
2023-02-08T04:23:55.038Z,103019.28
2023-02-08T04:26:22.385Z,103017.97
2023-02-08T04:28:49.757Z,103019.09
2023-02-08T04:31:19.855Z,103016.13
2023-02-08T04:33:47.263Z,103013.19
2023-02-08T04:36:14.585Z,103012.94
2023-02-08T04:38:44.624Z,103011.28
2023-02-08T04:41:11.942Z,103020.81
2023-02-08T04:43:39.361Z,103017.06
2023-02-08T04:46:09.432Z,103018.91
2023-02-08T04:48:36.800Z,103011.91
2023-02-08T04:51:04.526Z,103011.66
2023-02-08T04:53:31.941Z,103022.03
2023-02-08T04:55:59.212Z,103022.19
2023-02-08T04:58:26.612Z,103020.09
2023-02-08T05:00:53.933Z,103023.09
2023-02-08T05:03:21.282Z,103014.81
2023-02-08T05:05:57.658Z,103017.41
2023-02-08T05:08:25.420Z,103032.25
2023-02-08T05:10:52.789Z,103030.44
2023-02-08T05:13:20.130Z,103022.72
2023-02-08T05:15:47.503Z,103028.53
2023-02-08T05:18:14.965Z,103024.06
2023-02-08T05:20:42.613Z,103029.41
2023-02-08T05:23:12.670Z,103024.38
2023-02-08T05:25:40.518Z,103030.13
2023-02-08T05:28:07.877Z,103027.50
2023-02-08T05:30:35.214Z,103028.53
2023-02-08T05:33:02.574Z,103034.25
2023-02-08T05:35:29.937Z,103037.72
2023-02-08T05:37:57.250Z,103033.31
2023-02-08T05:40:24.714Z,103040.25
2023-02-08T05:42:52.255Z,103036.50
2023-02-08T05:45:21.000Z,103042.50
2023-02-08T05:47:48.343Z,103035.28
2023-02-08T05:50:15.948Z,103038.09
2023-02-08T05:52:43.268Z,103037.25
2023-02-08T05:55:13.331Z,103039.94
2023-02-08T05:57:40.700Z,103034.38
2023-02-08T06:00:08.684Z,103041.38
2023-02-08T06:02:43.584Z,103045.84
2023-02-08T06:05:11.385Z,103047.69
2023-02-08T06:07:38.783Z,103042.66
2023-02-08T06:10:06.872Z,103042.28
2023-02-08T06:12:34.205Z,103043.28
2023-02-08T06:15:04.310Z,103046.91
2023-02-08T06:17:31.721Z,103039.78
2023-02-08T06:19:59.108Z,103033.53
2023-02-08T06:22:27.169Z,103045.88
2023-02-08T06:24:54.433Z,103042.66
2023-02-08T06:27:21.790Z,103045.59
2023-02-08T06:29:51.184Z,103045.03
2023-02-08T06:32:18.714Z,103045.88
2023-02-08T06:34:46.005Z,103046.44
2023-02-08T06:37:13.324Z,103044.00
2023-02-08T06:39:40.661Z,103053.38
2023-02-08T06:42:08.030Z,103047.72
2023-02-08T06:44:35.387Z,103046.16
2023-02-08T06:47:03.148Z,103053.00
2023-02-08T06:49:31.196Z,103054.81
2023-02-08T06:51:58.518Z,103040.50
2023-02-08T06:54:25.896Z,103049.03
2023-02-08T06:56:54.560Z,103048.16
2023-02-08T06:59:21.972Z,103051.22
2023-02-08T07:01:49.834Z,103050.06
2023-02-08T07:04:17.169Z,103048.22
2023-02-08T07:06:47.476Z,103045.50
2023-02-08T07:09:14.831Z,103036.47
2023-02-08T07:11:42.407Z,103049.66
2023-02-08T07:14:13.789Z,103044.09
2023-02-08T07:16:42.154Z,103051.31
2023-02-08T07:19:09.525Z,103052.38
2023-02-08T07:21:36.859Z,103046.25
2023-02-08T07:24:04.267Z,103046.69
2023-02-08T07:26:31.743Z,103045.88
2023-02-08T07:28:59.145Z,103041.94
2023-02-08T07:31:26.529Z,103050.44
2023-02-08T07:33:53.821Z,103042.13
2023-02-08T07:36:21.227Z,103049.47
2023-02-08T07:38:48.610Z,103043.16
2023-02-08T07:41:16.267Z,103042.06
2023-02-08T07:43:44.137Z,103048.44
2023-02-08T07:46:14.011Z,103044.50
2023-02-08T07:48:41.512Z,103046.94
2023-02-08T07:51:09.895Z,103044.19
2023-02-08T07:53:37.993Z,103053.06
2023-02-08T07:56:06.329Z,103047.81
2023-02-08T07:58:33.692Z,103050.66
2023-02-08T08:01:09.443Z,103057.34
2023-02-08T08:03:43.422Z,103049.47
2023-02-08T08:06:10.705Z,103047.69
2023-02-08T08:08:38.077Z,103052.00
2023-02-08T08:11:06.083Z,103061.66
2023-02-08T08:13:33.498Z,103063.97
2023-02-08T08:16:00.775Z,103059.84
2023-02-08T08:18:28.182Z,103062.94
2023-02-08T08:20:55.526Z,103056.56
2023-02-08T08:23:23.844Z,103056.22
2023-02-08T08:25:51.100Z,103054.34
2023-02-08T08:28:19.148Z,103051.97
2023-02-08T08:30:46.658Z,103042.88
2023-02-08T08:33:14.456Z,103048.91
2023-02-08T08:35:43.852Z,103055.44
2023-02-08T08:38:11.244Z,103048.84
2023-02-08T08:40:38.916Z,103044.25
2023-02-08T08:43:06.489Z,103042.53
2023-02-08T08:45:33.834Z,103038.66
2023-02-08T08:48:01.791Z,103039.81
2023-02-08T08:50:29.197Z,103042.94
2023-02-08T08:52:56.541Z,103053.31
2023-02-08T08:55:28.336Z,103052.25
2023-02-08T08:57:55.680Z,103049.25
2023-02-08T09:00:25.985Z,103046.44
2023-02-08T09:02:53.579Z,103044.84
2023-02-08T09:05:20.892Z,103035.03
2023-02-08T09:07:48.286Z,103039.31
2023-02-08T09:10:15.634Z,103051.06
2023-02-08T09:12:43.000Z,103049.72
2023-02-08T09:15:11.666Z,103053.13
2023-02-08T09:17:39.088Z,103044.78
2023-02-08T09:20:06.637Z,103051.19
2023-02-08T09:22:34.049Z,103049.44
2023-02-08T09:25:02.102Z,103053.97
2023-02-08T09:27:29.814Z,103049.31
2023-02-08T09:29:57.104Z,103049.25
2023-02-08T09:32:24.553Z,103056.03
2023-02-08T09:34:51.840Z,103054.44
2023-02-08T09:37:19.189Z,103054.09
2023-02-08T09:39:46.720Z,103054.56
2023-02-08T09:42:20.918Z,103059.75
2023-02-08T09:45:20.486Z,103064.53
2023-02-08T09:47:50.540Z,103063.28
2023-02-08T09:50:26.439Z,103067.22
2023-02-08T09:53:02.890Z,103075.13
2023-02-08T09:55:37.257Z,103077.56
2023-02-08T09:58:15.695Z,103080.63
2023-02-08T10:00:46.969Z,103078.69
2023-02-08T10:03:32.491Z,103086.84
2023-02-08T10:06:00.747Z,103088.66
2023-02-08T10:08:35.241Z,103092.50
2023-02-08T10:11:08.696Z,103092.56
2023-02-08T10:13:55.015Z,103096.63
2023-02-08T10:17:22.015Z,103090.56
2023-02-08T10:20:18.045Z,103101.63
2023-02-08T10:23:06.886Z,103094.91
2023-02-08T10:25:58.904Z,103101.31
2023-02-08T10:28:35.170Z,103105.75
2023-02-08T10:31:20.747Z,103110.53
2023-02-08T10:34:00.227Z,103111.44
2023-02-08T10:36:33.317Z,103096.00
2023-02-08T10:39:12.986Z,103102.41
2023-02-08T10:41:40.923Z,103096.97
2023-02-08T10:44:40.642Z,103099.94
2023-02-08T10:47:20.735Z,103091.69
2023-02-08T10:50:00.230Z,103098.66
2023-02-08T10:52:27.888Z,103097.41
2023-02-08T10:54:58.497Z,103087.59
2023-02-08T10:57:34.583Z,103094.69
2023-02-08T11:00:09.722Z,103092.16
2023-02-08T11:02:42.092Z,103089.56
2023-02-08T11:05:15.562Z,103088.66
2023-02-08T11:07:43.260Z,103083.78
2023-02-08T11:10:19.661Z,103080.16
2023-02-08T11:13:03.772Z,103085.84
2023-02-08T11:15:51.864Z,103081.19
2023-02-08T11:18:46.753Z,103078.31
2023-02-08T11:21:33.681Z,103076.50
2023-02-08T11:24:07.904Z,103072.19
2023-02-08T11:26:39.039Z,103075.00
2023-02-08T11:29:19.327Z,103066.94
2023-02-08T11:32:02.477Z,103070.09
2023-02-08T11:34:33.766Z,103070.19
2023-02-08T11:37:05.354Z,103055.94
2023-02-08T11:39:43.705Z,103067.91
2023-02-08T11:42:39.873Z,103054.72
2023-02-08T11:45:21.212Z,103051.75
2023-02-08T11:47:50.087Z,103053.59
2023-02-08T11:50:31.902Z,103039.41
2023-02-08T11:53:05.730Z,103037.75
2023-02-08T11:55:35.057Z,103047.72
2023-02-08T11:58:02.409Z,103039.88
2023-02-08T12:00:35.179Z,103029.84
2023-02-08T12:03:12.025Z,103033.66
2023-02-08T12:06:14.796Z,103023.81
2023-02-08T12:09:15.016Z,103013.22
2023-02-08T12:11:48.321Z,103018.94
2023-02-08T12:14:35.532Z,103008.59
2023-02-08T12:17:14.580Z,103010.63
2023-02-08T12:20:00.576Z,103009.00
2023-02-08T12:22:29.948Z,103013.81
2023-02-08T12:25:06.604Z,103008.88
2023-02-08T12:27:46.113Z,103009.41
2023-02-08T12:30:30.200Z,103010.66
2023-02-08T12:33:20.608Z,103013.59
2023-02-08T12:36:02.693Z,103006.81
2023-02-08T12:39:20.489Z,103001.84
2023-02-08T12:42:22.803Z,102988.91
2023-02-08T12:45:15.348Z,102994.47
2023-02-08T12:48:03.439Z,102991.00
2023-02-08T12:50:45.854Z,102995.38
2023-02-08T12:53:40.274Z,102984.22
2023-02-08T12:56:17.335Z,102982.59
2023-02-08T12:59:01.910Z,102991.50
2023-02-08T13:01:44.234Z,102976.50
2023-02-08T13:04:19.582Z,102984.25
2023-02-08T13:07:07.130Z,102975.88
2023-02-08T13:09:35.673Z,102972.13
2023-02-08T13:12:13.906Z,102981.53
2023-02-08T13:14:51.922Z,102972.50
2023-02-08T13:17:44.373Z,102978.72
2023-02-08T13:20:29.212Z,102977.88
2023-02-08T13:23:03.804Z,102978.41
2023-02-08T13:25:34.919Z,102972.59
2023-02-08T13:28:05.377Z,102975.00
2023-02-08T13:30:39.813Z,102977.13
2023-02-08T13:33:19.493Z,102987.75
2023-02-08T13:35:53.593Z,102979.34
2023-02-08T13:38:31.373Z,102976.31
2023-02-08T13:41:05.860Z,102978.16
2023-02-08T13:43:46.072Z,102988.41
2023-02-08T13:46:13.928Z,102984.91
2023-02-08T13:48:47.920Z,102977.13
2023-02-08T13:51:33.674Z,102976.47
2023-02-08T13:54:01.113Z,102972.13
2023-02-08T13:56:44.451Z,102975.56
2023-02-08T13:59:26.988Z,102976.34
2023-02-08T14:02:14.942Z,102977.19
2023-02-08T14:04:44.156Z,102975.78
2023-02-08T14:07:11.436Z,102974.84
2023-02-08T14:09:53.737Z,102977.31
2023-02-08T14:12:34.989Z,102972.63
2023-02-08T14:15:33.020Z,102971.03
2023-02-08T14:18:04.017Z,102968.81
2023-02-08T14:20:39.900Z,102967.91
2023-02-08T14:23:22.219Z,102965.66
2023-02-08T14:25:52.182Z,102967.53
2023-02-08T14:28:41.310Z,102969.69
2023-02-08T14:31:11.365Z,102962.84
2023-02-08T14:33:42.535Z,102958.13
2023-02-08T14:36:33.937Z,102958.38
2023-02-08T14:39:07.890Z,102965.06
2023-02-08T14:41:46.504Z,102970.59
2023-02-08T14:44:43.308Z,102960.88
2023-02-08T14:47:35.724Z,102958.47
2023-02-08T14:50:17.071Z,102964.31
2023-02-08T14:52:53.010Z,102965.47
2023-02-08T14:55:27.437Z,102968.66
2023-02-08T14:58:00.998Z,102967.84
2023-02-08T15:00:39.181Z,102962.81
2023-02-08T15:03:14.499Z,102973.94
2023-02-08T15:06:00.316Z,102971.47
2023-02-08T15:08:27.756Z,102979.34
2023-02-08T15:10:55.877Z,102980.41
2023-02-08T15:13:26.755Z,102980.38
2023-02-08T15:15:57.290Z,102981.78
2023-02-08T15:18:32.275Z,102977.75
2023-02-08T15:21:05.425Z,102975.94
2023-02-08T15:23:33.112Z,102989.06
2023-02-08T15:26:04.895Z,102979.91
2023-02-08T15:28:35.822Z,102978.69
2023-02-08T15:31:11.375Z,102977.31
2023-02-08T15:33:40.148Z,102971.59
2023-02-08T15:36:16.232Z,102975.31
2023-02-08T15:38:44.968Z,102972.97
2023-02-08T15:41:14.996Z,102972.84
2023-02-08T15:43:43.343Z,102971.91
2023-02-08T15:46:27.442Z,102978.69
2023-02-08T15:48:57.302Z,102975.41
2023-02-08T15:51:27.408Z,102973.28
2023-02-08T15:53:58.558Z,102973.28
2023-02-08T15:56:37.541Z,102979.22
2023-02-08T15:59:14.747Z,102975.56
2023-02-08T16:01:46.897Z,102971.31
2023-02-08T16:04:14.401Z,102970.97
2023-02-08T16:06:49.296Z,102978.63
2023-02-08T16:09:29.013Z,102980.13
2023-02-08T16:11:59.546Z,102981.78
2023-02-08T16:14:30.298Z,102973.91
2023-02-08T16:16:58.848Z,102987.00
2023-02-08T16:19:31.964Z,102988.81
2023-02-08T16:22:21.326Z,102992.78
2023-02-08T16:24:50.892Z,102994.44
2023-02-08T16:27:25.715Z,102999.41
2023-02-08T16:29:53.985Z,103000.41
2023-02-08T16:32:26.546Z,103001.38
2023-02-08T16:34:54.630Z,103000.91
2023-02-08T16:37:35.079Z,103007.41
2023-02-08T16:40:04.865Z,103004.56
2023-02-08T16:42:39.949Z,103012.56
2023-02-08T16:45:12.596Z,103014.56
2023-02-08T16:47:41.621Z,103016.44
2023-02-08T16:50:12.679Z,103013.72
2023-02-08T16:52:40.569Z,103017.97
2023-02-08T16:55:16.481Z,103024.63
2023-02-08T16:57:53.310Z,103023.69
2023-02-08T17:00:27.237Z,103033.78
2023-02-08T17:02:55.901Z,103033.06
2023-02-08T17:05:26.340Z,103028.25
2023-02-08T17:07:53.702Z,103034.91
2023-02-08T17:10:28.661Z,103032.22
2023-02-08T17:13:07.033Z,103029.94
2023-02-08T17:15:48.952Z,103036.44
2023-02-08T17:18:16.506Z,103041.00
2023-02-08T17:20:44.481Z,103039.66
2023-02-08T17:23:12.327Z,103049.81
2023-02-08T17:25:39.964Z,103052.53
2023-02-08T17:28:11.962Z,103051.09
2023-02-08T17:30:42.168Z,103057.72
2023-02-08T17:33:22.251Z,103061.66
2023-02-08T17:35:51.417Z,103068.13
2023-02-08T17:38:20.385Z,103073.50
2023-02-08T17:40:47.945Z,103075.59
2023-02-08T17:43:15.788Z,103073.56
2023-02-08T17:45:44.554Z,103076.38
2023-02-08T17:48:14.466Z,103076.25
2023-02-08T17:50:46.519Z,103073.19
2023-02-08T17:53:14.262Z,103076.06
2023-02-08T17:55:45.764Z,103081.84
2023-02-08T17:58:13.802Z,103084.34
2023-02-08T18:00:41.634Z,103085.19
2023-02-08T18:03:09.310Z,103092.59
2023-02-08T18:05:37.490Z,103093.84
2023-02-08T18:08:05.186Z,103098.59
2023-02-08T18:10:33.130Z,103102.56
2023-02-08T18:13:00.584Z,103105.06
2023-02-08T18:15:28.216Z,103108.41
2023-02-08T18:17:55.928Z,103110.03
2023-02-08T18:20:23.427Z,103117.28
2023-02-08T18:22:50.860Z,103114.38
2023-02-08T18:25:19.103Z,103116.88
2023-02-08T18:27:46.560Z,103119.34
2023-02-08T18:30:14.176Z,103115.84
2023-02-08T18:32:41.612Z,103109.63
2023-02-08T18:35:09.200Z,103122.47
2023-02-08T18:37:37.908Z,103126.41
2023-02-08T18:40:07.936Z,103128.44
2023-02-08T18:42:36.288Z,103122.28
2023-02-08T18:45:05.719Z,103132.00
2023-02-08T18:47:35.360Z,103127.03
2023-02-08T18:50:03.209Z,103124.34
2023-02-08T18:52:31.642Z,103130.13
2023-02-08T18:54:59.337Z,103120.00
2023-02-08T18:57:26.799Z,103124.34
2023-02-08T18:59:57.145Z,103121.03
2023-02-08T19:02:26.344Z,103122.88
2023-02-08T19:04:54.097Z,103126.63
2023-02-08T19:07:21.668Z,103123.94
2023-02-08T19:09:51.927Z,103129.91
2023-02-08T19:12:21.050Z,103131.78
2023-02-08T19:14:50.765Z,103115.88
2023-02-08T19:17:18.799Z,103130.97
2023-02-08T19:19:46.464Z,103127.63
2023-02-08T19:22:15.366Z,103124.34
2023-02-08T19:24:43.045Z,103133.84
2023-02-08T19:27:10.392Z,103137.97
2023-02-08T19:29:38.185Z,103139.22
2023-02-08T19:32:08.356Z,103146.03
2023-02-08T19:34:35.773Z,103149.75
2023-02-08T19:37:03.362Z,103153.91
2023-02-08T19:39:30.731Z,103149.97
2023-02-08T19:41:58.830Z,103150.19
2023-02-08T19:44:29.035Z,103149.75
2023-02-08T19:46:57.846Z,103158.25
2023-02-08T19:49:26.186Z,103149.97
2023-02-08T19:51:54.379Z,103153.06
2023-02-08T19:54:25.117Z,103145.22
2023-02-08T19:56:55.904Z,103156.16
2023-02-08T19:59:26.816Z,103148.53
2023-02-08T20:01:55.565Z,103151.41
2023-02-08T20:04:23.966Z,103156.16
2023-02-08T20:06:53.352Z,103164.22
2023-02-08T20:09:23.881Z,103168.34
2023-02-08T20:11:57.188Z,103159.69
2023-02-08T20:14:31.125Z,103169.56
2023-02-08T20:17:00.304Z,103168.34
2023-02-08T20:19:28.378Z,103171.66
2023-02-08T20:21:55.717Z,103177.00
2023-02-08T20:24:23.082Z,103168.75
2023-02-08T20:26:50.740Z,103173.06
2023-02-08T20:29:18.294Z,103169.97
2023-02-08T20:31:53.498Z,103179.47
2023-02-08T20:34:21.541Z,103173.25
2023-02-08T20:37:05.690Z,103167.06
2023-02-08T20:39:35.103Z,103183.38
2023-02-08T20:42:02.708Z,103189.19
2023-02-08T20:44:31.559Z,103184.84
2023-02-08T20:46:58.941Z,103185.00
2023-02-08T20:49:26.918Z,103189.75
2023-02-08T20:51:54.842Z,103191.16
2023-02-08T20:54:24.588Z,103187.06
2023-02-08T20:56:53.721Z,103181.47
2023-02-08T20:59:21.739Z,103198.41
2023-02-08T21:01:49.370Z,103195.94
2023-02-08T21:04:17.949Z,103196.31
2023-02-08T21:06:46.285Z,103207.25
2023-02-08T21:09:15.269Z,103211.78
2023-02-08T21:11:43.552Z,103218.81
2023-02-08T21:14:19.092Z,103213.81
2023-02-08T21:16:52.654Z,103214.41
2023-02-08T21:19:20.767Z,103214.59
2023-02-08T21:21:56.983Z,103215.06
2023-02-08T21:24:25.292Z,103217.50
2023-02-08T21:26:54.342Z,103220.78
2023-02-08T21:29:23.140Z,103215.63
2023-02-08T21:31:54.166Z,103211.88
2023-02-08T21:34:22.060Z,103217.31
2023-02-08T21:36:49.423Z,103210.41
2023-02-08T21:39:16.849Z,103209.00
2023-02-08T21:41:45.628Z,103208.56
2023-02-08T21:44:13.040Z,103212.09
2023-02-08T21:46:40.289Z,103209.53
2023-02-08T21:49:26.137Z,103208.13
2023-02-08T21:52:15.084Z,103213.78
2023-02-08T21:54:42.752Z,103215.63
2023-02-08T21:57:19.088Z,103217.06
2023-02-08T21:59:48.295Z,103213.53
2023-02-08T22:02:25.906Z,103223.03
2023-02-08T22:04:57.963Z,103219.69
2023-02-08T22:07:26.010Z,103214.97
2023-02-08T22:09:53.273Z,103224.56
2023-02-08T22:12:24.302Z,103220.47
2023-02-08T22:14:51.634Z,103226.03
2023-02-08T22:17:19.252Z,103223.59
2023-02-08T22:19:46.553Z,103223.19
2023-02-08T22:22:14.055Z,103221.38
2023-02-08T22:24:41.471Z,103219.91
2023-02-08T22:27:09.112Z,103220.13
2023-02-08T22:29:36.441Z,103220.47
2023-02-08T22:32:05.582Z,103216.63
2023-02-08T22:34:33.079Z,103218.09
2023-02-08T22:37:03.719Z,103207.00
2023-02-08T22:39:32.959Z,103215.66
2023-02-08T22:42:00.282Z,103219.16
2023-02-08T22:44:27.568Z,103212.78
2023-02-08T22:46:56.099Z,103216.03
2023-02-08T22:49:23.411Z,103201.56
2023-02-08T22:51:50.763Z,103213.94
2023-02-08T22:54:18.187Z,103204.69
2023-02-08T22:56:45.599Z,103208.59
2023-02-08T22:59:15.783Z,103200.13
2023-02-08T23:01:43.770Z,103198.75
2023-02-08T23:04:11.488Z,103196.44
2023-02-08T23:06:39.589Z,103197.03
2023-02-08T23:09:07.012Z,103193.28
2023-02-08T23:11:34.697Z,103201.22
2023-02-08T23:14:01.987Z,103198.53
2023-02-08T23:16:29.472Z,103194.41
2023-02-08T23:18:56.791Z,103197.09
2023-02-08T23:21:24.259Z,103199.19
2023-02-08T23:23:51.568Z,103211.50
2023-02-08T23:26:21.505Z,103200.16
2023-02-08T23:28:53.004Z,103209.19
2023-02-08T23:31:21.497Z,103199.31
2023-02-08T23:33:49.440Z,103200.06
2023-02-08T23:36:20.841Z,103199.31
2023-02-08T23:38:49.383Z,103194.94
2023-02-08T23:41:20.170Z,103197.97
2023-02-08T23:43:48.894Z,103187.31
2023-02-08T23:46:17.226Z,103187.69
2023-02-08T23:48:45.760Z,103186.66
2023-02-08T23:51:13.812Z,103188.72
2023-02-08T23:53:41.078Z,103184.19
2023-02-08T23:56:16.662Z,103186.59
2023-02-08T23:58:45.278Z,103184.81
